Streeter, North Dakota
Current Conditions -  °F | °C
As of 5:56 PM on Sunday 23 Nov 2014 (Local Time) from KJMS Reporting Station
Overcast Overcast  
Wind Chill:   Ceiling: 2500
Heat Index: 20°   Visibility: 10mi
Dew Point: 13°   Wind: 22mph
Humidity: 74%   Direction: 330°NNW
Pressure: 29.59"   Gusts: 30mph
Location:  46.66°N, 99.35°W
Report Text: KJMS 232356Z AUTO 33019G26KT 10SM FEW018 OVC025 M07/M11 A2959 RMK AO2 PK WND 32038/2311 SLP037 60000 T10671106 10000 21067 53034
Loading
Personal Weather Stations






























Interactive Weather Map New forecast layout! Learn more

10-Day Weather Forecast

Advertisements
Track Severe Weather on mobile